x

Canaveral East - 120nm East Of Cape Canaveral (41010) Wave Buoy

12:50pm - Wed 30th Jul 2014 All times are EDT. -4 hours from GMT.

  • Sig Wave height 2.3ft
  • Swell Direction
  • Peak Period 4s
  • Average Period 5s
  • Wind
    7mph, 9mph gusts
  • Sea Temp 85°f
  • Air Temp 84°f
  • Sea Pressure 1015.4mb
  • Canaveral East - 120nm East Of Cape Canaveral
  • Canaveral East - 120nm East Of Cape Canaveral

More Historic Weather Station data

Upgrade to MSW Pro to gain access to the past 30 days of data for over 8000 Wavebouys and Weather Stations around the globe.

Join Pro

Comparision Forecast

View Surf forecast
   
Wed 07/30 12:50pm 2.5ft 4s 5s 7 9 mph 1015.4mb 85f 84f
12:20pm  -   -   -  7 9 mph 1015.4mb 85f 84f
11:50am 2.5ft 5s 5s 4 7 mph 1015.7mb 85f 84f
11:20am  -   -   -   -  2 mph 1015.8mb 85f 85f
10:50am 2.5ft 9s 5s 2
mph
1015.7mb 85f 84f
10:20am  -   -   -  4
mph
1015.5mb 84f 84f
9:50am 2.5ft 8s 5s 4 7 mph 1015.1mb 84f 83f
9:20am  -   -   -  4 7 mph 1014.7mb 84f 83f
8:50am 2.5ft 4s 5s 4 7 mph 1014.7mb 84f 83f
8:20am  -   -   -  7
mph
1014.6mb 84f 83f
7:50am 2.5ft 4s 4s 4 7 mph 1014.5mb 84f 83f
7:20am  -   -   -  9 11 mph 1014.2mb 84f 83f
6:50am 3ft 5s 5s 11 13 mph 1014mb 84f 83f
6:20am  -   -   -  9 11 mph 1013.9mb 84f 83f
5:50am 3.5ft 4s 4s 11 13 mph 1013.6mb 84f 83f
5:20am  -   -   -  11 16 mph 1013.2mb 84f 83f
4:50am 3.5ft 5s 4s 16 18 mph 1013mb 84f 83f
4:20am  -   -   -  16 18 mph 1013mb 84f 83f
3:50am 3.5ft 5s 4s 16 18 mph 1013.2mb 84f 84f
3:20am  -   -   -  16 20 mph 1013.5mb 84f 84f
2:50am 3.5ft 5s 4s 16 20 mph 1013.4mb 84f 83f
2:20am  -   -   -  16 18 mph 1013.7mb 84f 84f
1:50am 3.5ft 5s 5s 16 18 mph 1013.8mb 84f 84f
1:20am  -   -   -  16 18 mph 1014mb 84f 84f
12:50am 3ft 5s 5s 16 20 mph 1014.2mb 84f 84f
12:20am  -   -   -  11 13 mph 1014.4mb 84f 84f
Tue 07/29 11:50pm 3ft 9s 5s 13 16 mph 1014.6mb 84f 84f
11:20pm  -   -   -  11 13 mph 1014.8mb 84f 84f
10:50pm 3.5ft 5s 5s 13 16 mph 1014.6mb 84f 83f
10:20pm  -   -   -  11 13 mph 1014mb 84f 83f
9:50pm 3.5ft 5s 5s 13 16 mph 1014.3mb 84f 83f
9:20pm  -   -   -  13 18 mph 1014.3mb 84f 83f
8:50pm 3.5ft 5s 5s 16 18 mph 1013.9mb 84f 83f
8:20pm  -   -   -  16 20 mph 1013.7mb 84f 83f
7:50pm 4ft 5s 5s 16 20 mph 1013.5mb 84f 84f
7:20pm  -   -   -  16 18 mph 1013.4mb 84f 83f
6:50pm 3.5ft 5s 5s 16 20 mph 1013.2mb 84f 83f
6:20pm  -   -   -  16 18 mph 1013.1mb 84f 84f
5:50pm 4ft 6s 5s 13 20 mph 1013.3mb 84f 83f
5:20pm  -   -   -  16 18 mph 1013.6mb 84f 85f
4:50pm 4ft 6s 5s 16 18 mph 1013.4mb 84f 85f
4:20pm  -   -   -  13 18 mph 1013.4mb 84f 85f
3:50pm 4ft 6s 5s 16 18 mph 1013.5mb 84f 85f
3:20pm  -   -   -  13 16 mph 1013.7mb 84f 85f
2:50pm 4.5ft 6s 5s 13 16 mph 1014mb 84f 84f
2:20pm  -   -   -  16 18 mph 1014.3mb 84f 84f
1:50pm 4.5ft 6s 5s 13 16 mph 1014.5mb 84f 84f
1:20pm  -   -   -  9 11 mph 1014.4mb 84f 83f
12:50pm 4.5ft 6s 5s 13 16 mph 1014.1mb 84f 83f
12:20pm  -   -   -  16 18 mph 1014.6mb 84f 84f
11:50am 5ft 6s 5s 18 20 mph 1014.5mb 84f 84f
11:20am  -   -   -  18 20 mph 1014.5mb 84f 84f
10:50am 5.5ft 6s 5s 18 20 mph 1014.3mb 84f 84f
10:20am  -   -   -  18 20 mph 1014.1mb 84f 84f
9:50am 4.5ft 6s 5s 22 27 mph 1013.6mb 84f 83f
9:20am  -   -   -  18 22 mph 1013.9mb 84f 84f
8:50am 4.5ft 5s 5s 18 22 mph 1013.7mb 84f 84f
8:20am  -   -   -  18 22 mph 1013.7mb 84f 84f
7:50am 4ft 5s 5s 18 20 mph 1013.2mb 84f 84f
7:20am  -   -   -  20 25 mph 1012.8mb 84f 84f
6:50am 4.5ft 6s 5s 18 22 mph 1012.9mb 84f 84f
6:20am  -   -   -  18 20 mph 1013.1mb 84f 84f
5:50am 3.5ft 5s 4s 20 22 mph 1013mb 84f 85f
5:20am  -   -   -  18 20 mph 1012.9mb 84f 85f
4:50am 4.5ft 5s 5s 16 20 mph 1012.8mb 84f 84f
4:20am  -   -   -  18 20 mph 1012.7mb 84f 83f
3:50am 4.5ft 5s 5s 22 27 mph 1012.7mb 84f 83f
3:20am  -   -   -  20 25 mph 1012.6mb 84f 83f
2:50am 4.5ft 5s 4s 22 27 mph 1013.1mb 84f 83f
2:20am  -   -   -  20 25 mph 1013.6mb 84f 83f
1:50am 4.5ft 5s 4s 20 25 mph 1013.6mb 84f 82f
1:20am  -   -   -  22 27 mph 1013.8mb 84f 83f
12:50am 3.5ft 4s 4s 20 22 mph 1014.4mb 84f 84f
12:20am  -   -   -  20 25 mph 1014.8mb 84f 84f
Mon 07/28 11:50pm 3.5ft 4s 4s 20 25 mph 1015.1mb 84f 84f
11:20pm  -   -   -  18 22 mph 1015.1mb 84f 84f
10:50pm 3.5ft 4s 4s 20 22 mph 1015.2mb 84f 84f
10:20pm  -   -   -  20
mph
1015mb 84f 84f
9:50pm 3.5ft 6s 4s 20 22 mph 1014.9mb 84f 84f
9:20pm  -   -   -  18 20 mph 1015mb 84f 84f
8:50pm 3ft 6s 4s 18 20 mph 1014.6mb 84f 84f
8:20pm  -   -   -  18 20 mph 1014.6mb 84f 85f
7:50pm 3.5ft 6s 5s 16 20 mph 1014.5mb 84f 84f
7:20pm  -   -   -  16 18 mph 1014.7mb 85f 85f
6:50pm 3.5ft 6s 5s 16 18 mph 1014.7mb 84f 85f
6:20pm  -   -   -  16 18 mph 1014.9mb 85f 84f
5:50pm 3.5ft 6s 5s 16 18 mph 1015.1mb 85f 84f
5:20pm  -   -   -  16 20 mph 1015.2mb 85f 84f
4:50pm 4ft 6s 5s 16 18 mph 1015.4mb 85f 84f
4:20pm  -   -   -  16 18 mph 1015.6mb 85f 85f
3:50pm 4ft 6s 5s 16 18 mph 1015.6mb 85f 85f
3:20pm  -   -   -  13 16 mph 1015.9mb 85f 84f
2:50pm 4ft 6s 5s 13 16 mph 1016.3mb 85f 84f
2:20pm  -   -   -  16 18 mph 1016.5mb 85f 84f
1:50pm 3.5ft 5s 5s 16 18 mph 1016.6mb 85f 84f
1:20pm  -   -   -  16 18 mph 1016.7mb 85f 84f
12:50pm 3.5ft 5s 4s 16 18 mph 1016.9mb 85f 84f
11:50am 3.5ft 5s 4s 16 18 mph 1017.5mb 84f 84f
11:20am  -   -   -  16 18 mph 1017.6mb 84f 84f
10:50am 3.5ft 5s 4s 18 20 mph 1017.3mb 84f 84f
10:20am  -   -   -  18 20 mph 1017.3mb 84f 84f
9:50am 3.5ft 5s 4s 18 20 mph 1017.3mb 84f 84f
9:20am  -   -   -  16 20 mph 1017.2mb 84f 84f
8:50am 3.5ft 5s 5s 18 20 mph 1017mb 84f 84f
8:20am  -   -   -  16 20 mph 1017mb 84f 84f
7:50am 4.5ft 5s 5s 16 20 mph 1016.9mb 84f 84f
7:20am  -   -   -  16 18 mph 1016.9mb 84f 84f
6:50am 4.5ft 5s 4s 18 20 mph 1016.4mb 84f 84f
6:20am  -   -   -  16 18 mph 1016.5mb 84f 83f
5:50am 4ft 4s 4s 16 18 mph 1016mb 84f 83f
5:20am  -   -   -  18 22 mph 1015.9mb 84f 84f
4:50am 3.5ft 9s 4s 20 22 mph 1016mb 84f 85f
4:20am  -   -   -  20 22 mph 1015.9mb 84f 84f
3:50am 3.5ft 9s 4s 20 25 mph 1015.7mb 84f 85f
3:20am  -   -   -  20 25 mph 1016mb 84f 84f
2:50am 3.5ft 9s 4s 18 22 mph 1016.3mb 84f 84f
2:20am  -   -   -  20 22 mph 1016.4mb 84f 84f
1:50am 3ft 10s 4s 20 22 mph 1016.6mb 84f 84f
1:20am  -   -   -  16 20 mph 1017.1mb 84f 84f
12:50am 2.5ft 8s 4s 16 18 mph 1017.4mb 84f 84f
12:20am  -   -   -  16 18 mph 1017.6mb 84f 84f
Sun 07/27 11:50pm 2.5ft 10s 5s 16 18 mph 1017.6mb 84f 84f
11:20pm  -   -   -  16 18 mph 1017.4mb 84f 84f
10:50pm 2.5ft 10s 4s 13 16 mph 1017.7mb 84f 84f
10:20pm  -   -   -  13 16 mph 1017.9mb 84f 84f
9:50pm 2.5ft 10s 5s 13 16 mph 1017.9mb 84f 84f
9:20pm  -   -   -  16 18 mph 1017.5mb 84f 84f
8:50pm 3.5ft 10s 6s 16 18 mph 1017.4mb 84f 84f
8:20pm  -   -   -  13 16 mph 1017.6mb 85f 84f
7:50pm 3ft 10s 6s 11 13 mph 1017.7mb 85f 84f
7:20pm  -   -   -  11
mph
1017.8mb 85f 84f
6:50pm 3ft 10s 6s 9 11 mph 1017.6mb 85f 84f
6:20pm  -   -   -  9 11 mph 1017.6mb 85f 84f
5:50pm 3ft 9s 5s 9 11 mph 1017.9mb 85f 84f
5:20pm  -   -   -  9 11 mph 1017.7mb 85f 85f
4:50pm 3ft 8s 5s 11 13 mph 1017.5mb 85f 84f
4:20pm  -   -   -  11 13 mph 1017.5mb 85f 84f
3:50pm 3ft 10s 5s 13
mph
1017.8mb 84f 84f
3:20pm  -   -   -  11 13 mph 1018.1mb 84f 84f
2:50pm 2.5ft 8s 5s 13 16 mph 1018.3mb 84f 84f
2:20pm  -   -   -  11 13 mph 1018.5mb 84f 84f
1:50pm 3ft 8s 5s 11 13 mph 1018.6mb 84f 84f
1:20pm  -   -   -  13 16 mph 1018.6mb 84f 84f
12:50pm 3ft 8s 5s 13 16 mph 1019mb 84f 83f
12:20pm  -   -   -  13 16 mph 1019mb 84f 84f
11:50am 2.5ft 8s 5s 13
mph
1019.1mb 84f 84f
11:20am  -   -   -  13 16 mph 1018.9mb 84f 83f
10:50am 3ft 5s 4s 13 16 mph 1018.7mb 84f 83f
10:20am  -   -   -  11 13 mph 1018.8mb 84f 83f
9:50am 3ft 5s 4s 13 16 mph 1018.7mb 84f 83f
9:20am  -   -   -  11 13 mph 1018.9mb 84f 84f
8:50am 3ft 8s 4s 13 16 mph 1018.9mb 84f 84f
8:20am  -   -   -  13 16 mph 1018.7mb 84f 84f
7:50am 3ft 8s 4s 16 18 mph 1018.3mb 84f 84f
6:50am 2.5ft 8s 4s 16 18 mph 1017.9mb 84f 83f
6:20am  -   -   -  16 18 mph 1017.9mb 84f 83f
5:50am 3ft 7s 4s 16 18 mph 1017.6mb 84f 83f
5:20am  -   -   -  16 20 mph 1017.5mb 84f 83f
4:50am 2.5ft 4s 4s 13 16 mph 1017.6mb 84f 83f
4:20am  -   -   -  13 16 mph 1017.7mb 84f 83f
3:50am 3ft 4s 4s 13 16 mph 1017.7mb 84f 83f
3:20am  -   -   -  13
mph
1017.6mb 84f 83f
2:50am 2.5ft 4s 4s 16 18 mph 1017.6mb 84f 83f
2:20am  -   -   -  16 18 mph 1017.8mb 84f 83f
1:50am 2.5ft 4s 4s 18 20 mph 1018.1mb 84f 84f
1:20am  -   -   -  18 20 mph 1018.6mb 84f 83f
12:50am 2.5ft 7s 4s 16 20 mph 1018.5mb 84f 83f
12:20am  -   -   -  18 20 mph 1018.2mb 84f 84f
Sat 07/26 11:50pm 2.5ft 8s 4s 16 18 mph 1018.2mb 84f 84f
11:20pm  -   -   -  13 16 mph 1017.8mb 84f 83f
10:50pm 2.5ft 8s 4s 11 16 mph 1018mb 84f 84f
10:20pm  -   -   -  16 18 mph 1018.5mb 84f 84f
9:50pm 2.5ft 7s 4s 16 18 mph 1018.7mb 84f 84f
9:20pm  -   -   -  16 18 mph 1018.9mb 84f 84f
8:50pm 2.5ft 7s 4s 16 20 mph 1018.9mb 84f 84f
8:20pm  -   -   -  13 16 mph 1018.8mb 85f 84f
7:50pm 2.5ft 4s 4s 13 16 mph 1018.1mb 85f 84f
7:20pm  -   -   -  11
mph
1017.9mb 85f 84f
6:50pm 2.5ft 8s 4s 7 9 mph 1017.8mb 85f 84f
6:20pm  -   -   -  2 4 mph 1018mb 85f 84f